sensor_id;sensor_type;location;lat;lon;timestamp;temperature;humidity
68051;DHT22;54839;51.364;7.246;2022-12-07T00:01:29;4.50;99.90
68051;DHT22;54839;51.364;7.246;2022-12-07T00:03:58;4.40;99.90
68051;DHT22;54839;51.364;7.246;2022-12-07T00:06:29;4.50;99.90
68051;DHT22;54839;51.364;7.246;2022-12-07T00:08:55;4.50;99.90
68051;DHT22;54839;51.364;7.246;2022-12-07T00:11:22;4.50;99.90
68051;DHT22;54839;51.364;7.246;2022-12-07T00:13:52;4.50;99.90
68051;DHT22;54839;51.364;7.246;2022-12-07T00:16:19;4.50;99.90
68051;DHT22;54839;51.364;7.246;2022-12-07T00:18:45;4.50;99.90
68051;DHT22;54839;51.364;7.246;2022-12-07T00:21:14;4.50;99.90
68051;DHT22;54839;51.364;7.246;2022-12-07T00:23:41;4.60;99.90
68051;DHT22;54839;51.364;7.246;2022-12-07T00:26:09;4.60;99.90
68051;DHT22;54839;51.364;7.246;2022-12-07T00:28:35;4.60;99.90
68051;DHT22;54839;51.364;7.246;2022-12-07T00:31:08;4.50;99.90
68051;DHT22;54839;51.364;7.246;2022-12-07T00:33:35;4.50;99.90
68051;DHT22;54839;51.364;7.246;2022-12-07T00:36:01;4.60;99.90
68051;DHT22;54839;51.364;7.246;2022-12-07T00:38:29;4.50;99.90
68051;DHT22;54839;51.364;7.246;2022-12-07T00:41:00;4.50;99.90
68051;DHT22;54839;51.364;7.246;2022-12-07T00:43:27;4.60;99.90
68051;DHT22;54839;51.364;7.246;2022-12-07T00:45:53;4.50;99.90
68051;DHT22;54839;51.364;7.246;2022-12-07T00:48:19;4.60;99.90
68051;DHT22;54839;51.364;7.246;2022-12-07T00:50:44;4.60;99.90
68051;DHT22;54839;51.364;7.246;2022-12-07T00:53:10;4.50;99.90
68051;DHT22;54839;51.364;7.246;2022-12-07T00:55:36;4.60;99.90
68051;DHT22;54839;51.364;7.246;2022-12-07T00:58:03;4.50;99.90
68051;DHT22;54839;51.364;7.246;2022-12-07T01:00:28;4.60;99.90
68051;DHT22;54839;51.364;7.246;2022-12-07T01:02:54;4.60;99.90
68051;DHT22;54839;51.364;7.246;2022-12-07T01:05:20;4.60;99.90
68051;DHT22;54839;51.364;7.246;2022-12-07T01:07:46;4.60;99.90
68051;DHT22;54839;51.364;7.246;2022-12-07T01:10:12;4.70;99.90
68051;DHT22;54839;51.364;7.246;2022-12-07T01:12:38;4.70;99.90
68051;DHT22;54839;51.364;7.246;2022-12-07T01:15:04;4.70;99.90
68051;DHT22;54839;51.364;7.246;2022-12-07T01:17:29;4.70;99.90
68051;DHT22;54839;51.364;7.246;2022-12-07T01:19:55;4.70;99.90
68051;DHT22;54839;51.364;7.246;2022-12-07T01:22:20;4.70;99.90
68051;DHT22;54839;51.364;7.246;2022-12-07T01:24:46;4.60;99.90
68051;DHT22;54839;51.364;7.246;2022-12-07T01:27:13;4.80;99.90
68051;DHT22;54839;51.364;7.246;2022-12-07T01:29:38;4.60;99.90
68051;DHT22;54839;51.364;7.246;2022-12-07T01:32:04;4.60;99.90
68051;DHT22;54839;51.364;7.246;2022-12-07T01:34:29;4.60;99.90
68051;DHT22;54839;51.364;7.246;2022-12-07T01:36:55;4.60;99.90
68051;DHT22;54839;51.364;7.246;2022-12-07T01:39:20;4.50;99.90
68051;DHT22;54839;51.364;7.246;2022-12-07T01:41:46;4.40;99.90
68051;DHT22;54839;51.364;7.246;2022-12-07T01:46:55;4.50;99.90
68051;DHT22;54839;51.364;7.246;2022-12-07T01:49:42;4.50;99.90
68051;DHT22;54839;51.364;7.246;2022-12-07T01:52:31;4.50;99.90
68051;DHT22;54839;51.364;7.246;2022-12-07T01:55:03;4.50;99.90
68051;DHT22;54839;51.364;7.246;2022-12-07T01:57:30;4.50;99.90
68051;DHT22;54839;51.364;7.246;2022-12-07T01:59:57;4.50;99.90
68051;DHT22;54839;51.364;7.246;2022-12-07T02:02:34;4.60;99.90
68051;DHT22;54839;51.364;7.246;2022-12-07T02:05:02;4.50;99.90
68051;DHT22;54839;51.364;7.246;2022-12-07T02:07:29;4.50;99.90
68051;DHT22;54839;51.364;7.246;2022-12-07T02:09:54;4.50;99.90
68051;DHT22;54839;51.364;7.246;2022-12-07T02:12:21;4.50;99.90
68051;DHT22;54839;51.364;7.246;2022-12-07T02:14:47;4.60;99.90
68051;DHT22;54839;51.364;7.246;2022-12-07T02:23:00;4.70;99.90
68051;DHT22;54839;51.364;7.246;2022-12-07T02:25:47;4.60;99.90
68051;DHT22;54839;51.364;7.246;2022-12-07T02:28:55;4.60;99.90
68051;DHT22;54839;51.364;7.246;2022-12-07T02:31:19;4.60;99.90
68051;DHT22;54839;51.364;7.246;2022-12-07T02:33:51;4.60;99.90
68051;DHT22;54839;51.364;7.246;2022-12-07T02:36:25;4.60;99.90
68051;DHT22;54839;51.364;7.246;2022-12-07T02:39:20;4.50;99.90
68051;DHT22;54839;51.364;7.246;2022-12-07T02:41:53;4.60;99.90
68051;DHT22;54839;51.364;7.246;2022-12-07T02:44:24;4.50;99.90
68051;DHT22;54839;51.364;7.246;2022-12-07T02:46:54;4.50;99.90
68051;DHT22;54839;51.364;7.246;2022-12-07T02:49:22;4.50;99.90
68051;DHT22;54839;51.364;7.246;2022-12-07T02:51:49;4.60;99.90
68051;DHT22;54839;51.364;7.246;2022-12-07T02:54:17;4.50;99.90
68051;DHT22;54839;51.364;7.246;2022-12-07T03:10:54;4.70;99.90
68051;DHT22;54839;51.364;7.246;2022-12-07T03:13:48;4.60;99.90
68051;DHT22;54839;51.364;7.246;2022-12-07T03:16:16;4.50;99.90
68051;DHT22;54839;51.364;7.246;2022-12-07T03:18:51;4.50;99.90
68051;DHT22;54839;51.364;7.246;2022-12-07T03:21:25;4.50;99.90
68051;DHT22;54839;51.364;7.246;2022-12-07T03:23:56;4.40;99.90
68051;DHT22;54839;51.364;7.246;2022-12-07T03:26:26;4.50;99.90
68051;DHT22;54839;51.364;7.246;2022-12-07T03:28:59;4.40;99.90
68051;DHT22;54839;51.364;7.246;2022-12-07T03:31:31;4.50;99.90
68051;DHT22;54839;51.364;7.246;2022-12-07T03:34:20;4.40;99.90
68051;DHT22;54839;51.364;7.246;2022-12-07T03:36:59;4.40;99.90
68051;DHT22;54839;51.364;7.246;2022-12-07T03:39:32;4.30;99.90
68051;DHT22;54839;51.364;7.246;2022-12-07T03:42:00;4.40;99.90
68051;DHT22;54839;51.364;7.246;2022-12-07T03:44:27;4.40;99.90
68051;DHT22;54839;51.364;7.246;2022-12-07T03:47:07;4.30;99.90
68051;DHT22;54839;51.364;7.246;2022-12-07T03:49:43;4.30;99.90
68051;DHT22;54839;51.364;7.246;2022-12-07T03:55:07;4.30;99.90
68051;DHT22;54839;51.364;7.246;2022-12-07T03:57:35;4.30;99.90
68051;DHT22;54839;51.364;7.246;2022-12-07T04:00:04;4.40;99.90
68051;DHT22;54839;51.364;7.246;2022-12-07T04:02:30;4.30;99.90
68051;DHT22;54839;51.364;7.246;2022-12-07T04:04:56;4.40;99.90
68051;DHT22;54839;51.364;7.246;2022-12-07T04:07:21;4.30;99.90
68051;DHT22;54839;51.364;7.246;2022-12-07T04:09:47;4.40;99.90
68051;DHT22;54839;51.364;7.246;2022-12-07T04:12:12;4.50;99.90
68051;DHT22;54839;51.364;7.246;2022-12-07T04:14:38;4.40;99.90
68051;DHT22;54839;51.364;7.246;2022-12-07T04:17:04;4.30;99.90
68051;DHT22;54839;51.364;7.246;2022-12-07T04:19:31;4.30;99.90
68051;DHT22;54839;51.364;7.246;2022-12-07T04:21:59;4.30;99.90
68051;DHT22;54839;51.364;7.246;2022-12-07T04:24:25;4.30;99.90
68051;DHT22;54839;51.364;7.246;2022-12-07T04:26:51;4.30;99.90
68051;DHT22;54839;51.364;7.246;2022-12-07T04:29:18;4.30;99.90
68051;DHT22;54839;51.364;7.246;2022-12-07T04:31:43;4.20;99.90
68051;DHT22;54839;51.364;7.246;2022-12-07T04:34:10;4.30;99.90
68051;DHT22;54839;51.364;7.246;2022-12-07T04:36:36;4.30;99.90
68051;DHT22;54839;51.364;7.246;2022-12-07T04:39:02;4.30;99.90
68051;DHT22;54839;51.364;7.246;2022-12-07T04:41:28;4.20;99.90
68051;DHT22;54839;51.364;7.246;2022-12-07T04:44:01;4.20;99.90
68051;DHT22;54839;51.364;7.246;2022-12-07T04:46:29;4.10;99.90
68051;DHT22;54839;51.364;7.246;2022-12-07T04:48:55;4.10;99.90
68051;DHT22;54839;51.364;7.246;2022-12-07T04:51:26;4.10;99.90
68051;DHT22;54839;51.364;7.246;2022-12-07T04:53:52;4.20;99.90
68051;DHT22;54839;51.364;7.246;2022-12-07T04:56:18;4.10;99.90
68051;DHT22;54839;51.364;7.246;2022-12-07T04:58:45;4.20;99.90
68051;DHT22;54839;51.364;7.246;2022-12-07T05:01:11;4.20;99.90
68051;DHT22;54839;51.364;7.246;2022-12-07T05:03:38;4.30;99.90
68051;DHT22;54839;51.364;7.246;2022-12-07T05:06:04;4.20;99.90
68051;DHT22;54839;51.364;7.246;2022-12-07T05:08:30;4.20;99.90
68051;DHT22;54839;51.364;7.246;2022-12-07T05:10:55;4.20;99.90
68051;DHT22;54839;51.364;7.246;2022-12-07T05:13:21;4.20;99.90
68051;DHT22;54839;51.364;7.246;2022-12-07T05:15:47;4.30;99.90
68051;DHT22;54839;51.364;7.246;2022-12-07T05:18:13;4.10;99.90
68051;DHT22;54839;51.364;7.246;2022-12-07T05:20:39;4.20;99.90
68051;DHT22;54839;51.364;7.246;2022-12-07T05:23:05;4.20;99.90
68051;DHT22;54839;51.364;7.246;2022-12-07T05:25:30;4.20;99.90
68051;DHT22;54839;51.364;7.246;2022-12-07T05:27:56;4.30;99.90
68051;DHT22;54839;51.364;7.246;2022-12-07T05:30:23;4.20;99.90
68051;DHT22;54839;51.364;7.246;2022-12-07T05:32:49;4.30;99.90
68051;DHT22;54839;51.364;7.246;2022-12-07T05:35:15;4.30;99.90
68051;DHT22;54839;51.364;7.246;2022-12-07T05:37:40;4.20;99.90
68051;DHT22;54839;51.364;7.246;2022-12-07T05:40:06;4.20;99.90
68051;DHT22;54839;51.364;7.246;2022-12-07T05:42:32;4.20;99.90
68051;DHT22;54839;51.364;7.246;2022-12-07T05:44:57;4.20;99.90
68051;DHT22;54839;51.364;7.246;2022-12-07T05:47:23;4.20;99.90
68051;DHT22;54839;51.364;7.246;2022-12-07T05:49:48;4.20;99.90
68051;DHT22;54839;51.364;7.246;2022-12-07T05:52:14;4.20;99.90
68051;DHT22;54839;51.364;7.246;2022-12-07T05:54:40;4.20;99.90
68051;DHT22;54839;51.364;7.246;2022-12-07T05:57:06;4.10;99.90
68051;DHT22;54839;51.364;7.246;2022-12-07T05:59:31;4.10;99.90
68051;DHT22;54839;51.364;7.246;2022-12-07T06:02:05;4.10;99.90
68051;DHT22;54839;51.364;7.246;2022-12-07T06:04:34;4.10;99.90
68051;DHT22;54839;51.364;7.246;2022-12-07T06:07:00;4.10;99.90
68051;DHT22;54839;51.364;7.246;2022-12-07T06:09:27;4.00;99.90
68051;DHT22;54839;51.364;7.246;2022-12-07T06:11:54;4.10;99.90
68051;DHT22;54839;51.364;7.246;2022-12-07T06:14:38;4.00;99.90
68051;DHT22;54839;51.364;7.246;2022-12-07T06:17:04;4.00;99.90
68051;DHT22;54839;51.364;7.246;2022-12-07T06:19:30;3.90;99.90
68051;DHT22;54839;51.364;7.246;2022-12-07T06:21:56;4.00;99.90
68051;DHT22;54839;51.364;7.246;2022-12-07T06:24:22;3.90;99.90
68051;DHT22;54839;51.364;7.246;2022-12-07T06:26:47;4.00;99.90
68051;DHT22;54839;51.364;7.246;2022-12-07T06:29:13;4.00;99.90
68051;DHT22;54839;51.364;7.246;2022-12-07T06:31:39;3.90;99.90
68051;DHT22;54839;51.364;7.246;2022-12-07T06:34:08;4.00;99.90
68051;DHT22;54839;51.364;7.246;2022-12-07T06:36:34;4.10;99.90
68051;DHT22;54839;51.364;7.246;2022-12-07T06:39:00;4.10;99.90
68051;DHT22;54839;51.364;7.246;2022-12-07T06:41:26;4.00;99.90
68051;DHT22;54839;51.364;7.246;2022-12-07T06:43:51;4.00;99.90
68051;DHT22;54839;51.364;7.246;2022-12-07T06:46:17;4.00;99.90
68051;DHT22;54839;51.364;7.246;2022-12-07T06:48:44;4.00;99.90
68051;DHT22;54839;51.364;7.246;2022-12-07T06:51:10;4.00;99.90
68051;DHT22;54839;51.364;7.246;2022-12-07T06:53:36;3.90;99.90
68051;DHT22;54839;51.364;7.246;2022-12-07T06:56:02;3.90;99.90
68051;DHT22;54839;51.364;7.246;2022-12-07T06:58:28;3.90;99.90
68051;DHT22;54839;51.364;7.246;2022-12-07T07:00:54;4.00;99.90
68051;DHT22;54839;51.364;7.246;2022-12-07T07:03:19;3.90;99.90
68051;DHT22;54839;51.364;7.246;2022-12-07T07:05:45;4.00;99.90
68051;DHT22;54839;51.364;7.246;2022-12-07T07:08:11;4.00;99.90
68051;DHT22;54839;51.364;7.246;2022-12-07T07:10:37;4.00;99.90
68051;DHT22;54839;51.364;7.246;2022-12-07T07:13:03;4.00;99.90
68051;DHT22;54839;51.364;7.246;2022-12-07T07:15:29;3.90;99.90
68051;DHT22;54839;51.364;7.246;2022-12-07T07:17:55;3.90;99.90
68051;DHT22;54839;51.364;7.246;2022-12-07T07:20:21;4.00;99.90
68051;DHT22;54839;51.364;7.246;2022-12-07T07:22:46;4.00;99.90
68051;DHT22;54839;51.364;7.246;2022-12-07T07:25:12;4.00;99.90
68051;DHT22;54839;51.364;7.246;2022-12-07T07:27:38;3.80;99.90
68051;DHT22;54839;51.364;7.246;2022-12-07T07:30:05;3.80;99.90
68051;DHT22;54839;51.364;7.246;2022-12-07T07:32:31;3.80;99.90
68051;DHT22;54839;51.364;7.246;2022-12-07T07:34:56;3.80;99.90
68051;DHT22;54839;51.364;7.246;2022-12-07T07:37:22;3.80;99.90
68051;DHT22;54839;51.364;7.246;2022-12-07T07:39:48;3.90;99.90
68051;DHT22;54839;51.364;7.246;2022-12-07T07:42:14;3.80;99.90
68051;DHT22;54839;51.364;7.246;2022-12-07T07:44:40;3.80;99.90
68051;DHT22;54839;51.364;7.246;2022-12-07T07:47:05;3.80;99.90
68051;DHT22;54839;51.364;7.246;2022-12-07T07:49:31;3.80;99.90
68051;DHT22;54839;51.364;7.246;2022-12-07T07:51:56;3.80;99.90
68051;DHT22;54839;51.364;7.246;2022-12-07T07:54:22;3.80;99.90
68051;DHT22;54839;51.364;7.246;2022-12-07T07:56:47;3.70;99.90
68051;DHT22;54839;51.364;7.246;2022-12-07T07:59:14;3.80;99.90
68051;DHT22;54839;51.364;7.246;2022-12-07T08:01:40;3.90;99.90
68051;DHT22;54839;51.364;7.246;2022-12-07T08:04:05;3.80;99.90
68051;DHT22;54839;51.364;7.246;2022-12-07T08:06:31;3.90;99.90
68051;DHT22;54839;51.364;7.246;2022-12-07T08:08:56;4.00;99.90
68051;DHT22;54839;51.364;7.246;2022-12-07T08:11:23;3.80;99.90
68051;DHT22;54839;51.364;7.246;2022-12-07T08:13:49;3.90;99.90
68051;DHT22;54839;51.364;7.246;2022-12-07T08:16:15;3.90;99.90
68051;DHT22;54839;51.364;7.246;2022-12-07T08:18:42;3.90;99.90
68051;DHT22;54839;51.364;7.246;2022-12-07T08:21:11;4.10;99.90
68051;DHT22;54839;51.364;7.246;2022-12-07T08:23:36;4.20;99.90
68051;DHT22;54839;51.364;7.246;2022-12-07T08:26:04;4.20;99.90
68051;DHT22;54839;51.364;7.246;2022-12-07T08:28:30;4.20;99.90
68051;DHT22;54839;51.364;7.246;2022-12-07T08:31:14;4.30;99.90
68051;DHT22;54839;51.364;7.246;2022-12-07T08:33:40;4.30;99.90
68051;DHT22;54839;51.364;7.246;2022-12-07T08:36:08;4.20;99.90
68051;DHT22;54839;51.364;7.246;2022-12-07T08:38:38;4.20;99.90
68051;DHT22;54839;51.364;7.246;2022-12-07T08:41:04;4.30;99.90
68051;DHT22;54839;51.364;7.246;2022-12-07T08:43:30;4.30;99.90
68051;DHT22;54839;51.364;7.246;2022-12-07T08:46:11;4.20;99.90
68051;DHT22;54839;51.364;7.246;2022-12-07T08:49:11;4.30;99.90
68051;DHT22;54839;51.364;7.246;2022-12-07T08:51:39;4.10;99.90
68051;DHT22;54839;51.364;7.246;2022-12-07T08:54:10;4.30;99.90
68051;DHT22;54839;51.364;7.246;2022-12-07T08:56:36;4.20;99.90
68051;DHT22;54839;51.364;7.246;2022-12-07T08:59:03;4.30;99.90
68051;DHT22;54839;51.364;7.246;2022-12-07T09:01:29;4.40;99.90
68051;DHT22;54839;51.364;7.246;2022-12-07T09:03:55;4.30;99.90
68051;DHT22;54839;51.364;7.246;2022-12-07T09:06:20;4.40;99.90
68051;DHT22;54839;51.364;7.246;2022-12-07T09:08:48;4.50;99.90
68051;DHT22;54839;51.364;7.246;2022-12-07T09:11:14;4.50;99.90
68051;DHT22;54839;51.364;7.246;2022-12-07T09:13:40;4.50;99.90
68051;DHT22;54839;51.364;7.246;2022-12-07T09:16:06;4.50;99.90
68051;DHT22;54839;51.364;7.246;2022-12-07T09:18:31;4.50;99.90
68051;DHT22;54839;51.364;7.246;2022-12-07T09:20:57;4.50;99.90
68051;DHT22;54839;51.364;7.246;2022-12-07T09:23:23;4.50;99.90
68051;DHT22;54839;51.364;7.246;2022-12-07T09:25:48;4.60;99.90
68051;DHT22;54839;51.364;7.246;2022-12-07T09:28:14;4.50;99.90
68051;DHT22;54839;51.364;7.246;2022-12-07T09:30:46;4.70;99.90
68051;DHT22;54839;51.364;7.246;2022-12-07T09:33:12;4.70;99.90
68051;DHT22;54839;51.364;7.246;2022-12-07T09:35:37;4.70;99.90
68051;DHT22;54839;51.364;7.246;2022-12-07T09:38:03;4.70;99.90
68051;DHT22;54839;51.364;7.246;2022-12-07T09:40:29;4.70;99.90
68051;DHT22;54839;51.364;7.246;2022-12-07T09:42:55;4.80;99.90
68051;DHT22;54839;51.364;7.246;2022-12-07T09:45:27;4.90;99.90
68051;DHT22;54839;51.364;7.246;2022-12-07T09:47:57;5.00;99.90
68051;DHT22;54839;51.364;7.246;2022-12-07T09:50:26;5.10;99.90
68051;DHT22;54839;51.364;7.246;2022-12-07T09:52:52;4.90;99.90
68051;DHT22;54839;51.364;7.246;2022-12-07T09:55:28;4.80;99.90
68051;DHT22;54839;51.364;7.246;2022-12-07T09:57:54;4.80;99.90
68051;DHT22;54839;51.364;7.246;2022-12-07T10:00:23;4.60;99.90
68051;DHT22;54839;51.364;7.246;2022-12-07T10:02:59;4.80;99.90
68051;DHT22;54839;51.364;7.246;2022-12-07T10:05:38;4.70;99.90
68051;DHT22;54839;51.364;7.246;2022-12-07T10:08:05;4.70;99.90
68051;DHT22;54839;51.364;7.246;2022-12-07T10:10:35;4.60;99.90
68051;DHT22;54839;51.364;7.246;2022-12-07T10:13:07;4.60;99.90
68051;DHT22;54839;51.364;7.246;2022-12-07T10:15:53;4.70;99.90
68051;DHT22;54839;51.364;7.246;2022-12-07T10:18:34;5.00;99.90
68051;DHT22;54839;51.364;7.246;2022-12-07T10:21:24;5.10;99.90
68051;DHT22;54839;51.364;7.246;2022-12-07T10:24:16;5.30;99.90
68051;DHT22;54839;51.364;7.246;2022-12-07T10:26:52;5.20;99.90
68051;DHT22;54839;51.364;7.246;2022-12-07T10:29:36;5.40;99.90
68051;DHT22;54839;51.364;7.246;2022-12-07T10:32:06;5.40;99.90
68051;DHT22;54839;51.364;7.246;2022-12-07T10:34:49;5.50;99.90
68051;DHT22;54839;51.364;7.246;2022-12-07T10:37:16;5.30;99.90
68051;DHT22;54839;51.364;7.246;2022-12-07T10:42:25;5.70;99.90
68051;DHT22;54839;51.364;7.246;2022-12-07T10:47:48;5.70;99.90
68051;DHT22;54839;51.364;7.246;2022-12-07T10:52:58;5.90;99.90
68051;DHT22;54839;51.364;7.246;2022-12-07T10:55:45;5.80;99.90
68051;DHT22;54839;51.364;7.246;2022-12-07T11:04:06;5.90;99.90
68051;DHT22;54839;51.364;7.246;2022-12-07T11:06:39;5.90;99.90
68051;DHT22;54839;51.364;7.246;2022-12-07T11:12:09;6.10;99.90
68051;DHT22;54839;51.364;7.246;2022-12-07T11:17:34;6.00;99.90
68051;DHT22;54839;51.364;7.246;2022-12-07T11:23:30;6.10;99.90
68051;DHT22;54839;51.364;7.246;2022-12-07T11:34:49;6.00;99.90
68051;DHT22;54839;51.364;7.246;2022-12-07T11:37:25;6.00;99.90
68051;DHT22;54839;51.364;7.246;2022-12-07T11:39:58;5.70;99.90
68051;DHT22;54839;51.364;7.246;2022-12-07T11:42:33;5.70;99.90
68051;DHT22;54839;51.364;7.246;2022-12-07T11:45:03;5.70;99.90
68051;DHT22;54839;51.364;7.246;2022-12-07T11:47:45;5.60;99.90
68051;DHT22;54839;51.364;7.246;2022-12-07T11:50:21;5.60;99.90
68051;DHT22;54839;51.364;7.246;2022-12-07T11:52:58;5.60;99.90
68051;DHT22;54839;51.364;7.246;2022-12-07T11:55:49;5.60;99.90
68051;DHT22;54839;51.364;7.246;2022-12-07T12:06:36;5.20;99.90
68051;DHT22;54839;51.364;7.246;2022-12-07T12:09:16;5.20;99.90
68051;DHT22;54839;51.364;7.246;2022-12-07T12:12:01;5.20;99.90
68051;DHT22;54839;51.364;7.246;2022-12-07T12:17:39;5.50;99.90
68051;DHT22;54839;51.364;7.246;2022-12-07T12:20:23;5.50;99.90
68051;DHT22;54839;51.364;7.246;2022-12-07T12:22:58;5.60;99.90
68051;DHT22;54839;51.364;7.246;2022-12-07T12:25:28;5.40;99.90
68051;DHT22;54839;51.364;7.246;2022-12-07T12:27:58;5.40;99.90
68051;DHT22;54839;51.364;7.246;2022-12-07T12:30:38;5.30;99.90
68051;DHT22;54839;51.364;7.246;2022-12-07T12:33:27;5.40;99.90
68051;DHT22;54839;51.364;7.246;2022-12-07T12:52:45;5.60;99.90
68051;DHT22;54839;51.364;7.246;2022-12-07T12:55:01;5.60;99.90
68051;DHT22;54839;51.364;7.246;2022-12-07T12:57:31;5.40;99.90
68051;DHT22;54839;51.364;7.246;2022-12-07T12:59:58;5.60;99.90
68051;DHT22;54839;51.364;7.246;2022-12-07T13:02:36;5.40;99.90
68051;DHT22;54839;51.364;7.246;2022-12-07T13:05:20;5.40;99.90
68051;DHT22;54839;51.364;7.246;2022-12-07T13:23:36;5.80;99.90
68051;DHT22;54839;51.364;7.246;2022-12-07T13:26:25;5.90;99.90
68051;DHT22;54839;51.364;7.246;2022-12-07T13:29:17;6.00;99.90
68051;DHT22;54839;51.364;7.246;2022-12-07T13:31:51;5.90;99.90
68051;DHT22;54839;51.364;7.246;2022-12-07T13:34:37;6.00;99.90
68051;DHT22;54839;51.364;7.246;2022-12-07T13:37:25;5.80;99.90
68051;DHT22;54839;51.364;7.246;2022-12-07T13:39:54;5.60;99.90
68051;DHT22;54839;51.364;7.246;2022-12-07T13:42:25;5.70;99.90
68051;DHT22;54839;51.364;7.246;2022-12-07T13:44:52;5.60;99.90
68051;DHT22;54839;51.364;7.246;2022-12-07T13:49:57;5.60;99.90
68051;DHT22;54839;51.364;7.246;2022-12-07T13:52:30;5.60;99.90
68051;DHT22;54839;51.364;7.246;2022-12-07T13:54:57;5.50;99.90
68051;DHT22;54839;51.364;7.246;2022-12-07T13:57:25;5.40;99.90
68051;DHT22;54839;51.364;7.246;2022-12-07T13:59:51;5.30;99.90
68051;DHT22;54839;51.364;7.246;2022-12-07T14:02:23;5.30;99.90
68051;DHT22;54839;51.364;7.246;2022-12-07T14:04:50;5.30;99.90
68051;DHT22;54839;51.364;7.246;2022-12-07T14:07:27;5.10;99.90
68051;DHT22;54839;51.364;7.246;2022-12-07T14:09:59;5.10;99.90
68051;DHT22;54839;51.364;7.246;2022-12-07T14:12:27;5.10;99.90
68051;DHT22;54839;51.364;7.246;2022-12-07T14:14:54;5.30;99.90
68051;DHT22;54839;51.364;7.246;2022-12-07T14:17:22;5.20;99.90
68051;DHT22;54839;51.364;7.246;2022-12-07T14:19:53;5.20;99.90
68051;DHT22;54839;51.364;7.246;2022-12-07T14:24:58;4.70;99.90
68051;DHT22;54839;51.364;7.246;2022-12-07T14:27:24;4.70;99.90
68051;DHT22;54839;51.364;7.246;2022-12-07T14:29:56;4.80;99.90
68051;DHT22;54839;51.364;7.246;2022-12-07T14:32:27;4.70;99.90
68051;DHT22;54839;51.364;7.246;2022-12-07T14:35:02;4.70;99.90
68051;DHT22;54839;51.364;7.246;2022-12-07T14:37:29;4.50;99.90
68051;DHT22;54839;51.364;7.246;2022-12-07T14:39:55;4.50;99.90
68051;DHT22;54839;51.364;7.246;2022-12-07T14:42:24;4.40;99.90
68051;DHT22;54839;51.364;7.246;2022-12-07T14:44:50;4.40;99.90
68051;DHT22;54839;51.364;7.246;2022-12-07T14:47:16;4.40;99.90
68051;DHT22;54839;51.364;7.246;2022-12-07T14:49:41;4.30;99.90
68051;DHT22;54839;51.364;7.246;2022-12-07T14:52:16;4.30;99.90
68051;DHT22;54839;51.364;7.246;2022-12-07T14:54:42;4.30;99.90
68051;DHT22;54839;51.364;7.246;2022-12-07T14:57:09;4.20;99.90
68051;DHT22;54839;51.364;7.246;2022-12-07T14:59:35;4.20;99.90
68051;DHT22;54839;51.364;7.246;2022-12-07T15:02:01;4.10;99.90
68051;DHT22;54839;51.364;7.246;2022-12-07T15:04:26;4.10;99.90
68051;DHT22;54839;51.364;7.246;2022-12-07T15:07:00;4.00;99.90
68051;DHT22;54839;51.364;7.246;2022-12-07T15:09:27;4.00;99.90
68051;DHT22;54839;51.364;7.246;2022-12-07T15:11:52;4.00;99.90
68051;DHT22;54839;51.364;7.246;2022-12-07T15:14:18;3.80;99.90
68051;DHT22;54839;51.364;7.246;2022-12-07T15:16:44;3.80;99.90
68051;DHT22;54839;51.364;7.246;2022-12-07T15:19:27;3.90;99.90
68051;DHT22;54839;51.364;7.246;2022-12-07T15:21:54;3.70;99.90
68051;DHT22;54839;51.364;7.246;2022-12-07T15:24:20;3.80;99.90
68051;DHT22;54839;51.364;7.246;2022-12-07T15:26:46;3.70;99.90
68051;DHT22;54839;51.364;7.246;2022-12-07T15:29:12;3.60;99.90
68051;DHT22;54839;51.364;7.246;2022-12-07T15:31:37;3.70;99.90
68051;DHT22;54839;51.364;7.246;2022-12-07T15:34:04;3.70;99.90
68051;DHT22;54839;51.364;7.246;2022-12-07T15:36:33;3.60;99.90
68051;DHT22;54839;51.364;7.246;2022-12-07T15:38:59;3.60;99.90
68051;DHT22;54839;51.364;7.246;2022-12-07T15:41:25;3.60;99.90
68051;DHT22;54839;51.364;7.246;2022-12-07T15:43:50;3.70;99.90
68051;DHT22;54839;51.364;7.246;2022-12-07T15:46:37;3.70;99.90
68051;DHT22;54839;51.364;7.246;2022-12-07T15:49:05;3.60;99.90
68051;DHT22;54839;51.364;7.246;2022-12-07T15:51:31;3.60;99.90
68051;DHT22;54839;51.364;7.246;2022-12-07T15:53:57;3.50;99.90
68051;DHT22;54839;51.364;7.246;2022-12-07T15:56:23;3.60;99.90
68051;DHT22;54839;51.364;7.246;2022-12-07T15:58:49;3.50;99.90
68051;DHT22;54839;51.364;7.246;2022-12-07T16:01:17;3.60;99.90
68051;DHT22;54839;51.364;7.246;2022-12-07T16:03:43;3.60;99.90
68051;DHT22;54839;51.364;7.246;2022-12-07T16:06:09;3.70;99.90
68051;DHT22;54839;51.364;7.246;2022-12-07T16:08:35;3.70;99.90
68051;DHT22;54839;51.364;7.246;2022-12-07T16:11:07;3.70;99.90
68051;DHT22;54839;51.364;7.246;2022-12-07T16:13:33;3.70;99.90
68051;DHT22;54839;51.364;7.246;2022-12-07T16:16:03;3.80;99.90
68051;DHT22;54839;51.364;7.246;2022-12-07T16:18:30;3.80;99.90
68051;DHT22;54839;51.364;7.246;2022-12-07T16:20:55;3.90;99.90
68051;DHT22;54839;51.364;7.246;2022-12-07T16:23:21;3.90;99.90
68051;DHT22;54839;51.364;7.246;2022-12-07T16:25:46;3.90;99.90
68051;DHT22;54839;51.364;7.246;2022-12-07T16:28:12;3.90;99.90
68051;DHT22;54839;51.364;7.246;2022-12-07T16:30:37;3.90;99.90
68051;DHT22;54839;51.364;7.246;2022-12-07T16:33:03;3.90;99.90
68051;DHT22;54839;51.364;7.246;2022-12-07T16:35:29;4.00;99.90
68051;DHT22;54839;51.364;7.246;2022-12-07T16:37:54;3.90;99.90
68051;DHT22;54839;51.364;7.246;2022-12-07T16:40:20;4.00;99.90
68051;DHT22;54839;51.364;7.246;2022-12-07T16:42:46;4.00;99.90
68051;DHT22;54839;51.364;7.246;2022-12-07T16:45:11;4.10;99.90
68051;DHT22;54839;51.364;7.246;2022-12-07T16:47:37;4.10;99.90
68051;DHT22;54839;51.364;7.246;2022-12-07T16:50:04;4.20;99.90
68051;DHT22;54839;51.364;7.246;2022-12-07T16:52:29;4.20;99.90
68051;DHT22;54839;51.364;7.246;2022-12-07T16:54:55;4.20;99.90
68051;DHT22;54839;51.364;7.246;2022-12-07T16:57:20;4.20;99.90
68051;DHT22;54839;51.364;7.246;2022-12-07T16:59:46;4.20;99.90
68051;DHT22;54839;51.364;7.246;2022-12-07T17:02:12;4.20;99.90
68051;DHT22;54839;51.364;7.246;2022-12-07T17:04:37;4.30;99.90
68051;DHT22;54839;51.364;7.246;2022-12-07T17:07:05;4.20;99.90
68051;DHT22;54839;51.364;7.246;2022-12-07T17:09:31;4.20;99.90
68051;DHT22;54839;51.364;7.246;2022-12-07T17:11:57;4.20;99.90
68051;DHT22;54839;51.364;7.246;2022-12-07T17:14:22;4.30;99.90
68051;DHT22;54839;51.364;7.246;2022-12-07T17:17:07;4.20;99.90
68051;DHT22;54839;51.364;7.246;2022-12-07T17:19:32;4.40;99.90
68051;DHT22;54839;51.364;7.246;2022-12-07T17:21:58;4.40;99.90
68051;DHT22;54839;51.364;7.246;2022-12-07T17:24:23;4.40;99.90
68051;DHT22;54839;51.364;7.246;2022-12-07T17:26:49;4.50;99.90
68051;DHT22;54839;51.364;7.246;2022-12-07T17:29:17;4.40;99.90
68051;DHT22;54839;51.364;7.246;2022-12-07T17:31:43;4.30;99.90
68051;DHT22;54839;51.364;7.246;2022-12-07T17:34:13;4.30;99.90
68051;DHT22;54839;51.364;7.246;2022-12-07T17:36:39;4.20;99.90
68051;DHT22;54839;51.364;7.246;2022-12-07T17:39:09;4.20;99.90
68051;DHT22;54839;51.364;7.246;2022-12-07T17:41:36;4.30;99.90
68051;DHT22;54839;51.364;7.246;2022-12-07T17:44:21;4.20;99.90